CheckWX is a tool to help pilots better visualize weather data.  It is not intended as a substitute for an official pre-flight weather briefing.

01:54:43 UTC

KDEN TAF
Denver International Airport
Denver, Colorado, USA
KDEN 182338Z 1900/2006 35011KT P6SM FEW100 BKN220 FM190200 01012KT P6SM SCT090 BKN220 FM190500 34009KT P6SM SCT030 OVC080 FM191000 31006KT P6SM BKN030 OVC060 FM191500 01006KT P6SM OVC035 FM191900 03010KT P6SM VCSH OVC040 FM200200 04006KT P6SM SCT040 BKN080

Mar-19@
00:00 UTC

Mar-19 @ 00:00 UTC

Mar-19@
02:00 UTC

Mar-19 @ 02:00 UTC

KDEN 182338Z 1900/2006 35011KT P6SM FEW100 BKN220
Wind
  • 350° at 11 KTS
Cloud Levels
  • Few at 10,000' AGL
  • Broken at 22,000' AGL

Mar-19@
02:00 UTC

Mar-19 @ 02:00 UTC

Mar-19@
05:00 UTC

Mar-19 @ 05:00 UTC

FM190200 01012KT P6SM SCT090 BKN220

From

From Standard forecast or significant change

Wind
  • 010° at 12 KTS
Cloud Levels
  • Scattered at 9,000' AGL
  • Broken at 22,000' AGL

Mar-19@
05:00 UTC

Mar-19 @ 05:00 UTC

Mar-19@
10:00 UTC

Mar-19 @ 10:00 UTC

FM190500 34009KT P6SM SCT030 OVC080

From

From Standard forecast or significant change

Wind
  • 340° at 9 KTS
Cloud Levels
  • Scattered at 3,000' AGL
  • Overcast at 8,000' AGL

Mar-19@
10:00 UTC

Mar-19 @ 10:00 UTC

Mar-19@
15:00 UTC

Mar-19 @ 15:00 UTC

FM191000 31006KT P6SM BKN030 OVC060

From

From Standard forecast or significant change

Wind
  • 310° at 6 KTS
Cloud Levels
  • Broken at 3,000' AGL
  • Overcast at 6,000' AGL

Mar-19@
15:00 UTC

Mar-19 @ 15:00 UTC

Mar-19@
19:00 UTC

Mar-19 @ 19:00 UTC

FM191500 01006KT P6SM OVC035

From

From Standard forecast or significant change

Wind
  • 010° at 6 KTS
Cloud Levels
  • Overcast at 3,500' AGL

Mar-19@
19:00 UTC

Mar-19 @ 19:00 UTC

Mar-20@
02:00 UTC

Mar-20 @ 02:00 UTC

FM191900 03010KT P6SM VCSH OVC040

From

From Standard forecast or significant change

Wind
  • 030° at 10 KTS
Cloud Levels
  • Overcast at 4,000' AGL

Mar-20@
02:00 UTC

Mar-20 @ 02:00 UTC

Mar-20@
06:00 UTC

Mar-20 @ 06:00 UTC

FM200200 04006KT P6SM SCT040 BKN080

From

From Standard forecast or significant change

Wind
  • 040° at 6 KTS
Cloud Levels
  • Scattered at 4,000' AGL
  • Broken at 8,000' AGL